Time;durP1;ratioP1;P1;durP2;ratioP2;P2;SDS_P1;SDS_P2;PMS_P1;PMS_P2;Temp;Humidity;BMP_temperature;BMP_pressure;BME280_temperature;BME280_humidity;BME280_pressure;Samples;Min_cycle;Max_cycle;Signal;HPM_P1;HPM_P2
2021/11/02 00:00:33;;;;;;;2.78;1.48;;;;;;;;;;5026697;28;20041;-82
2021/11/02 00:02:59;;;;;;;2.70;1.52;;;;;;;;;;5034609;28;20034;-82
2021/11/02 00:05:26;;;;;;;4.32;3.00;;;;;;;;;;5034514;28;20060;-82
2021/11/02 00:07:53;;;;;;;3.65;1.75;;;;;;;;;;5036786;28;20053;-82
2021/11/02 00:10:19;;;;;;;6.13;1.80;;;;;;;;;;5032653;28;20037;-82
2021/11/02 00:12:47;;;;;;;2.15;1.50;;;;;;;;;;5040542;28;20037;-82
2021/11/02 00:15:20;;;;;;;2.70;1.75;;;;;;;;;;5038360;28;20052;-82
2021/11/02 00:17:48;;;;;;;3.05;1.55;;;;;;;;;;5043491;28;20065;-82
2021/11/02 00:20:15;;;;;;;2.70;1.73;;;;;;;;;;5035859;28;20046;-82
2021/11/02 00:22:51;;;;;;;2.83;1.45;;;;;;;;;;5032608;28;20121;-82
2021/11/02 00:25:18;;;;;;;3.15;1.95;;;;;;;;;;5037214;28;20461;-82
2021/11/02 00:27:44;;;;;;;3.47;2.28;;;;;;;;;;5031664;28;20045;-82
2021/11/02 00:30:14;;;;;;;2.83;1.88;;;;;;;;;;5036193;28;20045;-82
2021/11/02 00:32:41;;;;;;;4.00;2.17;;;;;;;;;;5034664;28;20049;-82
2021/11/02 00:35:10;;;;;;;4.15;2.65;;;;;;;;;;5043627;28;20363;-82
2021/11/02 00:37:36;;;;;;;4.93;2.60;;;;;;;;;;5042967;28;20033;-82
2021/11/02 00:40:06;;;;;;;3.42;2.22;;;;;;;;;;5035472;28;20041;-82
2021/11/02 00:42:37;;;;;;;5.30;2.60;;;;;;;;;;5030323;28;20052;-82
2021/11/02 00:45:04;;;;;;;4.07;2.30;;;;;;;;;;5034676;28;20052;-82
2021/11/02 00:47:33;;;;;;;5.22;2.60;;;;;;;;;;5030273;28;20038;-82
2021/11/02 00:50:00;;;;;;;6.57;2.70;;;;;;;;;;5035430;28;20508;-82
2021/11/02 00:52:28;;;;;;;4.57;2.90;;;;;;;;;;5040213;28;20051;-82
2021/11/02 00:54:54;;;;;;;5.32;2.67;;;;;;;;;;5037701;28;20128;-82
2021/11/02 00:57:22;;;;;;;4.97;2.65;;;;;;;;;;5043145;28;20068;-81
2021/11/02 00:59:48;;;;;;;5.68;3.00;;;;;;;;;;5034075;28;20397;-82
2021/11/02 01:02:15;;;;;;;6.05;2.53;;;;;;;;;;5043213;28;20056;-82
2021/11/02 01:04:43;;;;;;;4.20;2.50;;;;;;;;;;5044577;28;20037;-81
2021/11/02 01:07:09;;;;;;;5.07;3.00;;;;;;;;;;5040556;28;20037;-81
2021/11/02 01:09:36;;;;;;;4.32;2.78;;;;;;;;;;5039459;28;20152;-81
2021/11/02 01:12:02;;;;;;;4.85;2.67;;;;;;;;;;5037303;28;20037;-82
2021/11/02 01:14:29;;;;;;;4.65;2.50;;;;;;;;;;5036040;28;20041;-81
2021/11/02 01:16:56;;;;;;;4.32;2.80;;;;;;;;;;5040242;28;20055;-81
2021/11/02 01:19:22;;;;;;;4.82;2.70;;;;;;;;;;5037311;28;20033;-81
2021/11/02 01:21:50;;;;;;;5.82;2.95;;;;;;;;;;5043891;28;20512;-81
2021/11/02 01:24:17;;;;;;;5.10;2.78;;;;;;;;;;5039444;28;20527;-81
2021/11/02 01:26:43;;;;;;;4.47;3.13;;;;;;;;;;5043301;28;20037;-81
2021/11/02 01:29:10;;;;;;;6.60;4.00;;;;;;;;;;5039941;28;20037;-82
2021/11/02 01:31:36;;;;;;;4.57;2.80;;;;;;;;;;5038002;28;20037;-81
2021/11/02 01:34:03;;;;;;;5.22;2.20;;;;;;;;;;5039605;28;20120;-81
2021/11/02 01:36:30;;;;;;;4.53;2.80;;;;;;;;;;5039714;28;20065;-81
2021/11/02 01:38:58;;;;;;;4.85;3.03;;;;;;;;;;5038494;28;20056;-82
2021/11/02 01:41:26;;;;;;;5.43;2.60;;;;;;;;;;5037369;28;20053;-82
2021/11/02 01:43:55;;;;;;;4.57;3.05;;;;;;;;;;5037345;28;20099;-81
2021/11/02 01:46:24;;;;;;;6.47;2.50;;;;;;;;;;5039485;28;20045;-81
2021/11/02 01:48:52;;;;;;;5.97;3.08;;;;;;;;;;5042145;28;20041;-82
2021/11/02 01:51:18;;;;;;;5.07;2.85;;;;;;;;;;5030771;28;20133;-82
2021/11/02 01:53:45;;;;;;;5.18;2.97;;;;;;;;;;5039179;28;20037;-81
2021/11/02 01:56:13;;;;;;;5.55;3.00;;;;;;;;;;5042470;28;20041;-81
2021/11/02 01:58:43;;;;;;;5.35;2.80;;;;;;;;;;5037054;28;20045;-81
2021/11/02 02:01:11;;;;;;;4.85;2.60;;;;;;;;;;5040526;28;20037;-82
2021/11/02 02:03:43;;;;;;;5.13;2.70;;;;;;;;;;5035551;28;20488;-81
2021/11/02 02:06:13;;;;;;;5.30;3.00;;;;;;;;;;5037970;28;20041;-81
2021/11/02 02:08:44;;;;;;;7.50;3.40;;;;;;;;;;5033819;28;20044;-82
2021/11/02 02:11:18;;;;;;;5.43;2.75;;;;;;;;;;5029365;28;20042;-81
2021/11/02 02:13:50;;;;;;;5.25;2.72;;;;;;;;;;5029891;28;20394;-81
2021/11/02 02:16:20;;;;;;;4.55;2.95;;;;;;;;;;5033200;28;20040;-82
2021/11/02 02:18:51;;;;;;;4.63;2.95;;;;;;;;;;5042943;28;20062;-82
2021/11/02 02:21:34;;;;;;;5.32;3.45;;;;;;;;;;5048111;28;20075;-82
2021/11/02 02:24:18;;;;;;;5.05;2.47;;;;;;;;;;5036067;28;20568;-81
2021/11/02 02:26:55;;;;;;;6.13;3.08;;;;;;;;;;5036582;28;20041;-81
2021/11/02 02:29:24;;;;;;;6.53;3.38;;;;;;;;;;5033070;28;20037;-82
2021/11/02 02:31:52;;;;;;;6.18;3.63;;;;;;;;;;5034173;28;20049;-82
2021/11/02 02:34:19;;;;;;;5.40;3.13;;;;;;;;;;5043353;28;20053;-82
2021/11/02 02:36:50;;;;;;;5.65;3.40;;;;;;;;;;5035936;28;20042;-81
2021/11/02 02:39:17;;;;;;;6.53;3.45;;;;;;;;;;5043339;28;20039;-81
2021/11/02 02:41:44;;;;;;;6.28;3.70;;;;;;;;;;5030880;28;20068;-81
2021/11/02 02:44:12;;;;;;;5.63;3.70;;;;;;;;;;5038426;28;20494;-81
2021/11/02 02:46:41;;;;;;;6.18;3.80;;;;;;;;;;5042519;28;20045;-81
2021/11/02 02:49:09;;;;;;;6.97;3.33;;;;;;;;;;5039294;28;20033;-82
2021/11/02 02:51:36;;;;;;;7.95;3.92;;;;;;;;;;5048083;28;20042;-82
2021/11/02 02:54:03;;;;;;;6.55;4.05;;;;;;;;;;5035123;28;20374;-81
2021/11/02 02:56:31;;;;;;;8.15;4.15;;;;;;;;;;5037720;28;20116;-82
2021/11/02 02:59:01;;;;;;;6.93;3.38;;;;;;;;;;5037368;28;20041;-81
2021/11/02 03:01:28;;;;;;;7.35;4.28;;;;;;;;;;5039762;28;20036;-82
2021/11/02 03:03:58;;;;;;;7.10;3.95;;;;;;;;;;5037912;28;20042;-82
2021/11/02 03:06:31;;;;;;;6.28;3.42;;;;;;;;;;5035609;28;20044;-82
2021/11/02 03:08:59;;;;;;;7.78;3.97;;;;;;;;;;5063237;28;20067;-82
2021/11/02 03:11:26;;;;;;;5.40;3.03;;;;;;;;;;5040240;28;20052;-82
2021/11/02 03:13:55;;;;;;;6.63;3.70;;;;;;;;;;5033419;28;20048;-81
2021/11/02 03:16:31;;;;;;;7.00;3.90;;;;;;;;;;5030731;28;20051;-81
2021/11/02 03:50:11;;;;;;;6.20;3.65;;;;;;;;;;5010887;28;20067;-82
2021/11/02 03:55:28;;;;;;;6.57;3.47;;;;;;;;;;5022552;28;20188;-82
2021/11/02 03:57:58;;;;;;;5.80;3.00;;;;;;;;;;5034147;28;20378;-82
2021/11/02 04:00:59;;;;;;;5.68;2.42;;;;;;;;;;5031280;28;20107;-82
2021/11/02 04:31:52;;;;;;;4.75;2.40;;;;;;;;;;5032146;28;20099;-82
2021/11/02 05:10:16;;;;;;;;;;;;;;;;;;5037428;28;20124;-82
2021/11/02 05:48:50;;;;;;;5.38;2.92;;;;;;;;;;5042307;28;20051;-82
2021/11/02 05:54:29;;;;;;;7.25;2.80;;;;;;;;;;5037270;28;20397;-82
2021/11/02 05:56:59;;;;;;;7.97;2.78;;;;;;;;;;5043041;28;20045;-82
2021/11/02 05:59:41;;;;;;;10.95;3.53;;;;;;;;;;5033549;28;20063;-82
2021/11/02 06:02:25;;;;;;;6.05;3.00;;;;;;;;;;5036644;28;20053;-82
2021/11/02 06:05:09;;;;;;;5.70;2.70;;;;;;;;;;5035094;28;20042;-82
2021/11/02 06:07:50;;;;;;;9.32;3.08;;;;;;;;;;5044254;28;20088;-82
2021/11/02 06:29:43;;;;;;;9.32;2.45;;;;;;;;;;5038540;28;20048;-81
2021/11/02 06:32:14;;;;;;;4.47;2.60;;;;;;;;;;5046805;28;20049;-83
2021/11/02 06:34:54;;;;;;;4.70;2.47;;;;;;;;;;5037356;28;20378;-83
2021/11/02 06:37:33;;;;;;;7.60;2.25;;;;;;;;;;5043866;28;20071;-83
2021/11/02 06:42:57;;;;;;;5.22;2.65;;;;;;;;;;5026885;28;20516;-82
2021/11/02 06:45:40;;;;;;;5.47;2.45;;;;;;;;;;5029180;28;20037;-82
2021/11/02 06:51:17;;;;;;;5.88;2.40;;;;;;;;;;5037192;28;20124;-81
2021/11/02 06:54:03;;;;;;;4.93;2.83;;;;;;;;;;5038122;28;20065;-82
2021/11/02 06:59:44;;;;;;;11.70;3.25;;;;;;;;;;5028847;28;20116;-82
2021/11/02 07:15:10;;;;;;;4.43;2.72;;;;;;;;;;5039517;28;20060;-82
2021/11/02 07:19:18;;;;;;;4.05;2.22;;;;;;;;;;5039167;28;20048;-82
2021/11/02 07:21:55;;;;;;;7.43;3.15;;;;;;;;;;5047939;28;20037;-82
2021/11/02 07:24:29;;;;;;;4.53;2.28;;;;;;;;;;5041512;28;20045;-82
2021/11/02 07:27:07;;;;;;;4.28;2.25;;;;;;;;;;5039647;28;20064;-82
2021/11/02 07:30:16;;;;;;;3.25;1.98;;;;;;;;;;5043256;28;20120;-82
2021/11/02 08:47:31;;;;;;;3.53;1.52;;;;;;;;;;5037777;28;20136;-83
2021/11/02 08:49:59;;;;;;;9.80;1.70;;;;;;;;;;5040102;28;20045;-83
2021/11/02 08:52:26;;;;;;;3.22;1.73;;;;;;;;;;5045780;28;20049;-83
2021/11/02 08:54:54;;;;;;;2.88;1.20;;;;;;;;;;5041782;28;20033;-83
2021/11/02 08:57:22;;;;;;;3.28;1.58;;;;;;;;;;5047718;28;20052;-83
2021/11/02 08:59:49;;;;;;;3.58;1.23;;;;;;;;;;5047731;28;20044;-83
2021/11/02 09:02:23;;;;;;;4.50;1.50;;;;;;;;;;5035766;28;20045;-83
2021/11/02 09:05:05;;;;;;;2.10;0.98;;;;;;;;;;5038436;28;20045;-83
2021/11/02 09:07:33;;;;;;;2.58;1.10;;;;;;;;;;5034411;28;20056;-83
2021/11/02 09:10:00;;;;;;;3.63;1.50;;;;;;;;;;5042310;28;20056;-83
2021/11/02 09:12:31;;;;;;;2.42;1.30;;;;;;;;;;5039027;28;20042;-83
2021/11/02 09:15:00;;;;;;;3.95;1.67;;;;;;;;;;5038071;28;20308;-83
2021/11/02 09:17:30;;;;;;;1.98;0.90;;;;;;;;;;5037066;28;20045;-83
2021/11/02 09:19:58;;;;;;;1.90;1.00;;;;;;;;;;5038892;28;20717;-84
2021/11/02 09:22:26;;;;;;;3.65;1.20;;;;;;;;;;5042292;28;20048;-83
2021/11/02 09:24:52;;;;;;;6.03;2.10;;;;;;;;;;5044110;28;20042;-84
2021/11/02 09:27:20;;;;;;;2.78;1.00;;;;;;;;;;5043951;28;20045;-83
2021/11/02 09:29:47;;;;;;;2.75;1.00;;;;;;;;;;5044031;28;20041;-83
2021/11/02 09:32:14;;;;;;;1.40;0.82;;;;;;;;;;5042071;28;20378;-84
2021/11/02 09:34:42;;;;;;;4.30;1.30;;;;;;;;;;5046886;28;20052;-84
2021/11/02 09:37:16;;;;;;;2.78;0.90;;;;;;;;;;5040315;28;20045;-84
2021/11/02 09:39:45;;;;;;;1.30;0.70;;;;;;;;;;5039531;28;20045;-83
2021/11/02 09:42:38;;;;;;;3.72;0.85;;;;;;;;;;5039756;28;20753;-84
2021/11/02 09:45:48;;;;;;;2.22;0.80;;;;;;;;;;5025074;28;20424;-83
2021/11/02 09:48:51;;;;;;;3.65;1.13;;;;;;;;;;5040935;28;20041;-83
2021/11/02 09:51:51;;;;;;;1.20;0.70;;;;;;;;;;5038293;28;20051;-83
2021/11/02 09:54:45;;;;;;;2.13;0.90;;;;;;;;;;5007085;28;20042;-84
2021/11/02 09:57:57;;;;;;;3.22;0.65;;;;;;;;;;5038576;28;20440;-83
2021/11/02 10:00:40;;;;;;;1.30;0.60;;;;;;;;;;5044727;28;20053;-83
2021/11/02 10:03:33;;;;;;;1.70;0.70;;;;;;;;;;5041757;28;20096;-83
2021/11/02 10:06:15;;;;;;;3.15;0.70;;;;;;;;;;5040830;28;20140;-83
2021/11/02 10:08:45;;;;;;;2.08;0.80;;;;;;;;;;5035247;28;20044;-83
2021/11/02 10:11:23;;;;;;;1.50;0.50;;;;;;;;;;5045671;28;20043;-83
2021/11/02 10:14:11;;;;;;;4.88;1.13;;;;;;;;;;5039628;28;20037;-83
2021/11/02 10:16:56;;;;;;;2.58;0.80;;;;;;;;;;5038752;28;20061;-83
2021/11/02 10:19:59;;;;;;;1.77;0.68;;;;;;;;;;5045588;28;20041;-83
2021/11/02 10:22:54;;;;;;;1.80;0.60;;;;;;;;;;5030127;28;20044;-83
2021/11/02 10:25:44;;;;;;;2.15;0.60;;;;;;;;;;5037449;28;20584;-83
2021/11/02 10:28:27;;;;;;;1.33;0.45;;;;;;;;;;5038195;28;20052;-83
2021/11/02 10:30:57;;;;;;;2.05;0.60;;;;;;;;;;5040506;28;20044;-83
2021/11/02 10:33:31;;;;;;;1.63;0.60;;;;;;;;;;5043876;28;20050;-83
2021/11/02 10:36:16;;;;;;;5.93;0.80;;;;;;;;;;5032406;28;20068;-83
2021/11/02 10:38:56;;;;;;;2.35;0.65;;;;;;;;;;5043424;28;20056;-83
2021/11/02 10:41:30;;;;;;;5.70;0.80;;;;;;;;;;5039442;28;20401;-83
2021/11/02 10:44:07;;;;;;;1.85;0.50;;;;;;;;;;5042990;28;20132;-83
2021/11/02 10:46:37;;;;;;;2.65;0.47;;;;;;;;;;5042526;28;20041;-83
2021/11/02 10:49:09;;;;;;;5.20;1.00;;;;;;;;;;5043209;28;20045;-83
2021/11/02 10:51:39;;;;;;;1.80;0.52;;;;;;;;;;5040397;28;20226;-82
2021/11/02 10:54:22;;;;;;;0.93;0.32;;;;;;;;;;5037142;28;20490;-83
2021/11/02 10:57:14;;;;;;;3.55;1.00;;;;;;;;;;5035576;28;20042;-83
2021/11/02 10:59:46;;;;;;;1.63;0.90;;;;;;;;;;5046430;28;20280;-82
2021/11/02 11:02:23;;;;;;;3.75;0.40;;;;;;;;;;5044302;28;20049;-82
2021/11/02 11:04:51;;;;;;;2.13;0.47;;;;;;;;;;5044390;28;20083;-82
2021/11/02 11:07:18;;;;;;;3.50;0.60;;;;;;;;;;5045144;28;20067;-82
2021/11/02 11:09:46;;;;;;;1.25;0.55;;;;;;;;;;5045465;28;20496;-82
2021/11/02 11:12:15;;;;;;;1.10;0.40;;;;;;;;;;5045253;28;20422;-82
2021/11/02 11:14:45;;;;;;;2.80;0.85;;;;;;;;;;5042717;28;20044;-82
2021/11/02 11:17:17;;;;;;;2.90;0.47;;;;;;;;;;5043031;28;20171;-82
2021/11/02 11:19:50;;;;;;;2.53;0.60;;;;;;;;;;5044383;28;20060;-82
2021/11/02 11:22:22;;;;;;;2.30;0.47;;;;;;;;;;5044475;28;20042;-82
2021/11/02 11:24:56;;;;;;;2.97;0.82;;;;;;;;;;5045582;28;20707;-83
2021/11/02 11:27:25;;;;;;;4.68;0.65;;;;;;;;;;5043419;28;20052;-83
2021/11/02 11:29:55;;;;;;;3.03;0.50;;;;;;;;;;5043427;28;20052;-82
2021/11/02 11:32:23;;;;;;;2.17;0.77;;;;;;;;;;5045503;28;20052;-82
2021/11/02 11:34:53;;;;;;;1.33;0.35;;;;;;;;;;5045379;28;20060;-82
2021/11/02 11:37:23;;;;;;;2.65;0.90;;;;;;;;;;5042783;28;20041;-82
2021/11/02 11:39:53;;;;;;;1.75;0.40;;;;;;;;;;5042664;28;20041;-83
2021/11/02 11:42:21;;;;;;;2.17;0.50;;;;;;;;;;5044771;28;20060;-83
2021/11/02 11:44:51;;;;;;;1.73;0.70;;;;;;;;;;5044140;28;20045;-82
2021/11/02 11:47:24;;;;;;;1.27;0.70;;;;;;;;;;5043579;28;20059;-82
2021/11/02 11:49:52;;;;;;;1.98;0.80;;;;;;;;;;5044147;28;20423;-82
2021/11/02 11:52:23;;;;;;;4.45;1.08;;;;;;;;;;5042409;28;20040;-82
2021/11/02 11:54:51;;;;;;;0.93;0.35;;;;;;;;;;5041576;28;20041;-82
2021/11/02 11:57:27;;;;;;;1.48;0.47;;;;;;;;;;5048760;28;20045;-83
2021/11/02 11:59:58;;;;;;;;;;;;;;;;;;5044540;28;20050;-82
2021/11/02 12:02:33;;;;;;;0.25;0.25;;;;;;;;;;5045086;28;20349;-82
2021/11/02 12:05:03;;;;;;;1.70;0.40;;;;;;;;;;5042742;28;20041;-82
2021/11/02 12:07:34;;;;;;;0.77;0.50;;;;;;;;;;5043514;28;20972;-82
2021/11/02 12:10:04;;;;;;;2.00;0.40;;;;;;;;;;5043614;28;20045;-82
2021/11/02 12:12:32;;;;;;;0.95;0.40;;;;;;;;;;5043527;28;20068;-82
2021/11/02 12:15:00;;;;;;;0.90;0.30;;;;;;;;;;5040941;28;20639;-82
2021/11/02 12:17:30;;;;;;;2.08;0.50;;;;;;;;;;5039667;28;20056;-82
2021/11/02 12:20:11;;;;;;;0.60;0.30;;;;;;;;;;5044945;28;20041;-82
2021/11/02 12:22:47;;;;;;;0.85;0.30;;;;;;;;;;5041309;28;20516;-82
2021/11/02 12:25:21;;;;;;;0.30;0.20;;;;;;;;;;5040634;28;20607;-82
2021/11/02 12:27:48;;;;;;;1.17;0.40;;;;;;;;;;5043481;28;20404;-82
2021/11/02 12:30:16;;;;;;;0.80;0.30;;;;;;;;;;5043253;28;20041;-83
2021/11/02 12:32:47;;;;;;;0.35;0.30;;;;;;;;;;5041319;28;20103;-82
2021/11/02 12:35:27;;;;;;;0.93;0.40;;;;;;;;;;5043031;28;20042;-82
2021/11/02 12:37:56;;;;;;;1.55;0.30;;;;;;;;;;5042273;28;20475;-82
2021/11/02 12:40:24;;;;;;;0.20;0.20;;;;;;;;;;5041487;28;20063;-82
2021/11/02 12:42:51;;;;;;;1.52;0.55;;;;;;;;;;5043168;28;20045;-82
2021/11/02 12:45:19;;;;;;;0.47;0.17;;;;;;;;;;5041512;28;20045;-82
2021/11/02 12:47:48;;;;;;;0.35;0.10;;;;;;;;;;5044161;28;20479;-82
2021/11/02 12:50:16;;;;;;;1.02;0.30;;;;;;;;;;5042295;28;20052;-82
2021/11/02 12:52:43;;;;;;;0.75;0.30;;;;;;;;;;5042457;28;20037;-82
2021/11/02 12:55:11;;;;;;;0.30;0.20;;;;;;;;;;5045096;28;20049;-83
2021/11/02 12:57:39;;;;;;;1.90;0.40;;;;;;;;;;5042983;28;20053;-82
2021/11/02 13:00:08;;;;;;;1.10;0.40;;;;;;;;;;5044795;28;20060;-82
2021/11/02 13:02:36;;;;;;;1.38;0.28;;;;;;;;;;5043773;28;20042;-82
2021/11/02 13:05:06;;;;;;;2.25;0.30;;;;;;;;;;5046202;28;20131;-83
2021/11/02 13:07:38;;;;;;;0.75;0.40;;;;;;;;;;5045985;28;20060;-82
2021/11/02 13:10:13;;;;;;;2.60;1.45;;;;;;;;;;5046325;28;20045;-82
2021/11/02 13:12:42;;;;;;;0.88;0.30;;;;;;;;;;5045069;28;20044;-82
2021/11/02 13:15:11;;;;;;;0.80;0.40;;;;;;;;;;5046158;28;20374;-82
2021/11/02 13:17:44;;;;;;;1.67;0.45;;;;;;;;;;5046033;28;20044;-83
2021/11/02 13:20:13;;;;;;;0.80;0.30;;;;;;;;;;5044191;28;20053;-84
2021/11/02 13:22:50;;;;;;;1.60;0.25;;;;;;;;;;5047605;28;20041;-83
2021/11/02 13:25:23;;;;;;;0.98;0.68;;;;;;;;;;5047017;28;20047;-83
2021/11/02 13:27:53;;;;;;;1.27;0.32;;;;;;;;;;5047155;28;20067;-83
2021/11/02 13:30:25;;;;;;;1.05;0.40;;;;;;;;;;5046086;28;20052;-82
2021/11/02 13:33:02;;;;;;;0.68;0.40;;;;;;;;;;5045710;28;20053;-83
2021/11/02 13:35:50;;;;;;;0.55;0.30;;;;;;;;;;5045651;28;20067;-83
2021/11/02 13:38:32;;;;;;;0.85;0.40;;;;;;;;;;5045982;28;20946;-82
2021/11/02 13:41:01;;;;;;;0.68;0.50;;;;;;;;;;5046559;28;20400;-82
2021/11/02 13:43:32;;;;;;;1.38;0.45;;;;;;;;;;5045706;28;20048;-82
2021/11/02 13:46:00;;;;;;;1.20;0.52;;;;;;;;;;5042051;28;20100;-83
2021/11/02 13:48:29;;;;;;;2.78;0.55;;;;;;;;;;5045379;28;20049;-83
2021/11/02 13:50:58;;;;;;;0.65;0.38;;;;;;;;;;5044665;28;20076;-83
2021/11/02 13:53:24;;;;;;;1.17;0.47;;;;;;;;;;5044359;28;20049;-83
2021/11/02 13:55:51;;;;;;;2.30;0.70;;;;;;;;;;5046872;28;20049;-83
2021/11/02 13:58:18;;;;;;;0.47;0.30;;;;;;;;;;5046850;28;20384;-83
2021/11/02 14:00:45;;;;;;;0.88;0.38;;;;;;;;;;5046454;28;20048;-83
2021/11/02 14:03:15;;;;;;;1.42;0.52;;;;;;;;;;5046395;28;20041;-83
2021/11/02 14:05:42;;;;;;;1.52;0.40;;;;;;;;;;5044510;28;20416;-83
2021/11/02 14:08:10;;;;;;;0.90;0.40;;;;;;;;;;5043703;28;20472;-83
2021/11/02 14:10:37;;;;;;;0.82;0.30;;;;;;;;;;5045833;28;20045;-83
2021/11/02 14:13:03;;;;;;;1.30;0.25;;;;;;;;;;5046925;28;20052;-83
2021/11/02 14:15:31;;;;;;;3.03;0.50;;;;;;;;;;5044080;28;20049;-83
2021/11/02 14:18:09;;;;;;;2.30;0.28;;;;;;;;;;5045000;28;20148;-83
2021/11/02 14:20:39;;;;;;;1.23;0.50;;;;;;;;;;5046126;28;20131;-83
2021/11/02 14:23:06;;;;;;;0.70;0.20;;;;;;;;;;5045600;28;20033;-83
2021/11/02 14:25:35;;;;;;;0.85;0.32;;;;;;;;;;5044490;28;20398;-83
2021/11/02 14:28:03;;;;;;;0.60;0.30;;;;;;;;;;5046625;28;20041;-83
2021/11/02 14:30:40;;;;;;;1.35;0.40;;;;;;;;;;5046026;28;20048;-83
2021/11/02 14:33:07;;;;;;;0.68;0.40;;;;;;;;;;5045605;28;20477;-83
2021/11/02 14:35:54;;;;;;;0.50;0.30;;;;;;;;;;5044574;28;20056;-83
2021/11/02 14:38:23;;;;;;;0.20;0.20;;;;;;;;;;5044573;28;20044;-83
2021/11/02 14:40:52;;;;;;;0.38;0.20;;;;;;;;;;5044949;28;20064;-83
2021/11/02 14:43:30;;;;;;;0.68;0.20;;;;;;;;;;5046813;28;20051;-83
2021/11/02 14:45:58;;;;;;;2.47;0.47;;;;;;;;;;5043628;28;20510;-83
2021/11/02 14:48:35;;;;;;;2.75;0.80;;;;;;;;;;5046878;28;20057;-82
2021/11/02 14:51:02;;;;;;;1.13;0.50;;;;;;;;;;5045146;28;20173;-83
2021/11/02 14:53:30;;;;;;;3.75;1.30;;;;;;;;;;5043362;28;20056;-83
2021/11/02 14:56:00;;;;;;;3.35;2.30;;;;;;;;;;5046686;28;20503;-83
2021/11/02 14:58:46;;;;;;;4.85;1.65;;;;;;;;;;5042675;28;20037;-83
2021/11/02 15:01:14;;;;;;;5.35;1.48;;;;;;;;;;5044780;28;20045;-83
2021/11/02 15:03:42;;;;;;;10.13;5.20;;;;;;;;;;5044466;28;20167;-83
2021/11/02 15:06:10;;;;;;;7.90;2.33;;;;;;;;;;5043602;28;20048;-83
2021/11/02 15:08:38;;;;;;;2.58;1.00;;;;;;;;;;5044878;28;20045;-82
2021/11/02 15:11:09;;;;;;;1.25;0.70;;;;;;;;;;5044952;28;20033;-82
2021/11/02 15:13:38;;;;;;;4.50;2.17;;;;;;;;;;5045419;28;20052;-82
2021/11/02 15:16:07;;;;;;;3.03;1.60;;;;;;;;;;5043322;28;20041;-83
2021/11/02 15:18:42;;;;;;;1.73;0.43;;;;;;;;;;5042996;28;20049;-82
2021/11/02 15:21:09;;;;;;;2.25;0.90;;;;;;;;;;5042392;28;20049;-83
2021/11/02 15:23:43;;;;;;;2.30;1.10;;;;;;;;;;5045902;28;20049;-83
2021/11/02 15:26:12;;;;;;;1.55;0.80;;;;;;;;;;5041892;28;20045;-82
2021/11/02 15:28:43;;;;;;;1.85;0.70;;;;;;;;;;5045681;28;20634;-84
2021/11/02 15:31:10;;;;;;;1.13;0.63;;;;;;;;;;5043728;28;20750;-82
2021/11/02 15:33:39;;;;;;;1.42;0.70;;;;;;;;;;5041194;28;20038;-83
2021/11/02 15:36:19;;;;;;;2.22;0.90;;;;;;;;;;5040762;28;20049;-82
2021/11/02 15:39:00;;;;;;;7.55;3.53;;;;;;;;;;5046910;28;20054;-82
2021/11/02 15:41:29;;;;;;;4.80;3.70;;;;;;;;;;5045488;28;20516;-82
2021/11/02 15:44:01;;;;;;;4.03;2.10;;;;;;;;;;5045338;28;20484;-82
2021/11/02 15:46:35;;;;;;;3.08;1.55;;;;;;;;;;5042138;28;20131;-82
2021/11/02 15:49:04;;;;;;;3.30;1.20;;;;;;;;;;5040906;28;20041;-82
2021/11/02 15:51:36;;;;;;;13.30;8.50;;;;;;;;;;5041519;28;20500;-82
2021/11/02 15:54:10;;;;;;;17.55;11.55;;;;;;;;;;5042334;28;20570;-82
2021/11/02 15:56:39;;;;;;;13.38;8.45;;;;;;;;;;5044313;28;20037;-82
2021/11/02 15:59:07;;;;;;;3.17;2.22;;;;;;;;;;5043279;28;20108;-82
2021/11/02 16:01:40;;;;;;;5.88;4.03;;;;;;;;;;5044479;28;20044;-83
2021/11/02 16:04:08;;;;;;;4.65;1.80;;;;;;;;;;5043755;28;20048;-82
2021/11/02 16:06:35;;;;;;;2.38;0.98;;;;;;;;;;5042458;28;20612;-82
2021/11/02 16:09:04;;;;;;;2.33;1.58;;;;;;;;;;5043959;28;20370;-82
2021/11/02 16:11:31;;;;;;;3.53;2.00;;;;;;;;;;5044487;28;20037;-82
2021/11/02 16:14:07;;;;;;;4.88;2.47;;;;;;;;;;5044723;28;20044;-82
2021/11/02 16:16:36;;;;;;;0.98;0.73;;;;;;;;;;5040610;28;20053;-82
2021/11/02 16:19:03;;;;;;;4.40;2.92;;;;;;;;;;5043721;28;20049;-83
2021/11/02 16:21:32;;;;;;;7.90;5.63;;;;;;;;;;5044363;28;20037;-82
2021/11/02 16:24:08;;;;;;;5.63;2.80;;;;;;;;;;5043969;28;20049;-82
2021/11/02 16:26:37;;;;;;;3.47;2.05;;;;;;;;;;5041793;28;20061;-82
2021/11/02 16:29:09;;;;;;;1.83;1.10;;;;;;;;;;5041523;28;20040;-82
2021/11/02 16:31:36;;;;;;;3.85;1.38;;;;;;;;;;5040979;28;20049;-82
2021/11/02 16:34:15;;;;;;;1.95;0.73;;;;;;;;;;5044312;28;20037;-83
2021/11/02 16:36:42;;;;;;;4.10;2.50;;;;;;;;;;5042805;28;20041;-82
2021/11/02 16:39:20;;;;;;;1.77;1.35;;;;;;;;;;5042484;28;20045;-82
2021/11/02 16:41:48;;;;;;;1.60;1.10;;;;;;;;;;5044732;28;20033;-83
2021/11/02 16:44:28;;;;;;;3.00;1.50;;;;;;;;;;5043147;28;20053;-82
2021/11/02 16:47:03;;;;;;;1.30;0.80;;;;;;;;;;5042055;28;20398;-83
2021/11/02 16:49:30;;;;;;;1.92;1.17;;;;;;;;;;5045559;28;20049;-82
2021/11/02 16:52:00;;;;;;;1.83;0.95;;;;;;;;;;5043190;28;20045;-82
2021/11/02 16:54:28;;;;;;;1.35;0.85;;;;;;;;;;5044159;28;20362;-82
2021/11/02 16:57:01;;;;;;;2.50;1.00;;;;;;;;;;5043035;28;20429;-82
2021/11/02 16:59:55;;;;;;;2.78;1.60;;;;;;;;;;5043910;28;20033;-82
2021/11/02 17:02:24;;;;;;;2.05;1.23;;;;;;;;;;5044995;28;20076;-82
2021/11/02 17:05:16;;;;;;;1.73;1.13;;;;;;;;;;5043850;28;20049;-82
2021/11/02 17:07:47;;;;;;;3.47;1.60;;;;;;;;;;5027929;28;20053;-82
2021/11/02 17:10:21;;;;;;;5.68;3.50;;;;;;;;;;5043514;28;20041;-82
2021/11/02 17:12:48;;;;;;;5.82;3.00;;;;;;;;;;5041124;28;20049;-82
2021/11/02 17:15:19;;;;;;;4.78;2.70;;;;;;;;;;5040695;28;20052;-82
2021/11/02 17:17:46;;;;;;;4.63;2.97;;;;;;;;;;5039842;28;20662;-82
2021/11/02 17:20:14;;;;;;;5.15;3.10;;;;;;;;;;5043312;28;20048;-82
2021/11/02 17:22:42;;;;;;;3.85;2.40;;;;;;;;;;5041546;28;20057;-82
2021/11/02 17:25:09;;;;;;;5.18;2.60;;;;;;;;;;5039476;28;20367;-82
2021/11/02 17:27:36;;;;;;;5.63;2.80;;;;;;;;;;5040004;28;20041;-82
2021/11/02 17:30:03;;;;;;;4.15;2.13;;;;;;;;;;5038569;28;20049;-82
2021/11/02 17:32:32;;;;;;;3.58;1.92;;;;;;;;;;5040329;28;20053;-82
2021/11/02 17:34:59;;;;;;;5.03;2.65;;;;;;;;;;5041223;28;20033;-82
2021/11/02 17:37:26;;;;;;;2.25;1.35;;;;;;;;;;5036947;28;20052;-82
2021/11/02 17:39:54;;;;;;;2.05;1.25;;;;;;;;;;5039543;28;20056;-82
2021/11/02 17:42:20;;;;;;;1.50;0.95;;;;;;;;;;5040551;28;20064;-82
2021/11/02 17:44:47;;;;;;;1.23;0.77;;;;;;;;;;5042996;28;20076;-82
2021/11/02 17:47:14;;;;;;;1.77;0.90;;;;;;;;;;5045019;28;20049;-84
2021/11/02 17:49:43;;;;;;;3.20;1.25;;;;;;;;;;5046970;28;20056;-83
2021/11/02 17:52:11;;;;;;;2.28;1.08;;;;;;;;;;5044336;28;20041;-82
2021/11/02 17:54:39;;;;;;;3.08;1.40;;;;;;;;;;5047690;28;20078;-82
2021/11/02 17:57:06;;;;;;;5.75;2.47;;;;;;;;;;5046368;28;20056;-83
2021/11/02 17:59:34;;;;;;;9.02;4.30;;;;;;;;;;5047230;28;20056;-82
2021/11/02 18:02:04;;;;;;;8.48;4.28;;;;;;;;;;5034730;28;20107;-81
2021/11/02 18:04:33;;;;;;;5.57;2.28;;;;;;;;;;5047815;28;20049;-82
2021/11/02 18:07:04;;;;;;;1.63;1.00;;;;;;;;;;5044056;28;20057;-82
2021/11/02 18:09:31;;;;;;;2.75;1.85;;;;;;;;;;5046826;28;20046;-82
2021/11/02 18:11:58;;;;;;;4.72;3.70;;;;;;;;;;5032608;28;20056;-82
2021/11/02 18:14:26;;;;;;;2.80;1.77;;;;;;;;;;5046729;28;20052;-82
2021/11/02 18:16:54;;;;;;;3.30;2.30;;;;;;;;;;5046697;28;20052;-82
2021/11/02 18:19:21;;;;;;;4.70;1.63;;;;;;;;;;5043587;28;20099;-82
2021/11/02 18:21:48;;;;;;;4.00;1.80;;;;;;;;;;5046309;28;20048;-82
2021/11/02 18:24:16;;;;;;;4.82;1.50;;;;;;;;;;5046759;28;20041;-82
2021/11/02 18:26:43;;;;;;;3.85;1.58;;;;;;;;;;5045195;28;20053;-82
2021/11/02 18:29:09;;;;;;;3.70;2.17;;;;;;;;;;5045041;28;20046;-82
2021/11/02 18:31:36;;;;;;;3.55;1.50;;;;;;;;;;5045531;28;20048;-82
2021/11/02 18:34:03;;;;;;;4.68;1.60;;;;;;;;;;5028333;28;20061;-82
2021/11/02 18:36:31;;;;;;;2.38;1.52;;;;;;;;;;5046161;28;20053;-82
2021/11/02 18:38:58;;;;;;;2.38;1.30;;;;;;;;;;5044965;28;20091;-82
2021/11/02 18:41:27;;;;;;;2.30;1.50;;;;;;;;;;5042158;28;20049;-82
2021/11/02 18:43:55;;;;;;;1.45;0.88;;;;;;;;;;5042816;28;20037;-81
2021/11/02 18:46:22;;;;;;;2.60;1.40;;;;;;;;;;5042554;28;20402;-82
2021/11/02 18:48:48;;;;;;;2.10;1.33;;;;;;;;;;5042546;28;20044;-81
2021/11/02 18:51:15;;;;;;;3.65;1.70;;;;;;;;;;5042106;28;20049;-81
2021/11/02 18:53:42;;;;;;;3.03;1.80;;;;;;;;;;5043875;28;20063;-81
2021/11/02 18:56:09;;;;;;;2.42;1.50;;;;;;;;;;5042882;28;20033;-82
2021/11/02 18:58:38;;;;;;;2.17;1.48;;;;;;;;;;5041577;28;20053;-82
2021/11/02 19:01:05;;;;;;;2.90;1.50;;;;;;;;;;5043088;28;20034;-82
2021/11/02 19:03:31;;;;;;;4.22;1.80;;;;;;;;;;5042317;28;20045;-81
2021/11/02 19:05:58;;;;;;;3.08;1.63;;;;;;;;;;5046115;28;20049;-82
2021/11/02 19:08:25;;;;;;;4.32;3.58;;;;;;;;;;5048916;28;20053;-82
2021/11/02 19:10:53;;;;;;;3.72;2.88;;;;;;;;;;5050248;28;20047;-82
2021/11/02 19:13:19;;;;;;;2.83;2.10;;;;;;;;;;5051035;28;20041;-81
2021/11/02 19:15:48;;;;;;;3.33;1.80;;;;;;;;;;5047611;28;20104;-81
2021/11/02 19:18:15;;;;;;;3.08;2.17;;;;;;;;;;5046950;28;20055;-82
2021/11/02 19:20:42;;;;;;;5.30;1.98;;;;;;;;;;5046143;28;20044;-82
2021/11/02 19:23:09;;;;;;;3.70;2.10;;;;;;;;;;5043211;28;20043;-82